Berwick-upon-Tweed, United Kingdom
Current Conditions -  °F | °C
As of 1:50 PM on Thursday 30 Oct 2014 (Local Time) from EGQM Reporting Station
Haze Haze  
Wind Chill: 55°   Ceiling: 2500
Heat Index: 55°   Visibility: 5mi
Dew Point: 55°   Wind: 8mph
Humidity: 100%   Direction: 160°SSE
Pressure: 29.91"   Gusts: NA
Location:  55.78°N, 2°W
Report Text: EGQM 301350Z AUTO 16007KT 8000 BR BKN025/// 13/13 Q1013
Loading
Personal Weather Stations






























Interactive Weather Map
Tropical Storm Tracking
New forecast layout! Learn more

10-Day Weather Forecast

Advertisements
Track Severe Weather on mobile